Time;durP1;ratioP1;P1;durP2;ratioP2;P2;SDS_P1;SDS_P2;PMS_P1;PMS_P2;Temp;Humidity;BMP_temperature;BMP_pressure;BME280_temperature;BME280_humidity;BME280_pressure;Samples;Min_cycle;Max_cycle;Signal;HPM_P1;HPM_P2
2021/09/21 00:00:22;;;;;;;9.47;8.53;;;11.60;99.90;;;;;;5072458;28;20419;-49
2021/09/21 00:02:47;;;;;;;10.93;9.83;;;11.50;99.90;;;;;;5070655;28;20190;-49
2021/09/21 00:05:13;;;;;;;9.73;8.73;;;11.50;99.90;;;;;;5072138;28;20276;-50
2021/09/21 00:07:39;;;;;;;9.67;8.67;;;11.50;99.90;;;;;;5061453;28;20672;-49
2021/09/21 00:10:06;;;;;;;10.20;8.97;;;11.50;99.90;;;;;;5071087;28;20504;-51
2021/09/21 00:12:32;;;;;;;10.63;8.93;;;11.50;99.90;;;;;;5071510;28;20173;-51
2021/09/21 00:14:58;;;;;;;10.50;8.90;;;11.50;99.90;;;;;;5071505;28;20432;-49
2021/09/21 00:17:23;;;;;;;10.90;8.83;;;11.50;99.90;;;;;;5072077;28;20427;-49
2021/09/21 00:19:49;;;;;;;10.30;9.07;;;11.50;99.90;;;;;;5071038;28;20185;-52
2021/09/21 00:22:14;;;;;;;9.37;8.37;;;11.50;99.90;;;;;;5072209;28;20240;-48
2021/09/21 00:24:40;;;;;;;10.37;9.33;;;11.50;99.90;;;;;;5071233;28;20181;-48
2021/09/21 00:27:05;;;;;;;10.03;9.03;;;11.50;99.90;;;;;;5071677;28;20182;-52
2021/09/21 00:29:31;;;;;;;9.17;8.27;;;11.50;99.90;;;;;;5069540;28;20532;-48
2021/09/21 00:32:01;;;;;;;9.40;8.50;;;11.50;99.90;;;;;;5070475;28;20226;-50
2021/09/21 00:34:42;;;;;;;9.67;8.77;;;11.50;99.90;;;;;;5071785;28;20177;-49
2021/09/21 00:37:12;;;;;;;9.53;8.23;;;11.50;99.90;;;;;;5071791;28;20780;-52
2021/09/21 00:39:39;;;;;;;10.93;9.23;;;11.50;99.90;;;;;;5071031;28;20416;-50
2021/09/21 00:42:06;;;;;;;9.40;8.40;;;11.50;99.90;;;;;;5050333;28;20915;-49
2021/09/21 00:44:34;;;;;;;9.93;9.03;;;11.50;99.90;;;;;;5057079;28;20471;-51
2021/09/21 00:47:01;;;;;;;10.27;9.27;;;11.50;99.90;;;;;;5070575;28;20455;-47
2021/09/21 00:49:27;;;;;;;10.33;9.33;;;11.50;99.90;;;;;;5071443;28;20745;-47
2021/09/21 00:51:55;;;;;;;9.83;8.90;;;11.50;99.90;;;;;;5070417;28;20432;-49
2021/09/21 00:54:21;;;;;;;10.93;9.63;;;11.40;99.90;;;;;;5071518;28;20724;-48
2021/09/21 00:56:46;;;;;;;10.83;9.27;;;11.50;99.90;;;;;;5070264;28;20428;-46
2021/09/21 00:59:12;;;;;;;8.37;7.67;;;11.40;99.90;;;;;;5069693;28;20651;-50
2021/09/21 01:01:38;;;;;;;8.83;8.03;;;11.50;99.90;;;;;;5070108;28;20478;-51
2021/09/21 01:04:05;;;;;;;11.37;9.20;;;11.40;99.90;;;;;;5071150;28;20192;-50
2021/09/21 01:06:31;;;;;;;9.80;8.47;;;11.40;99.90;;;;;;5065474;28;20190;-50
2021/09/21 01:08:57;;;;;;;9.80;8.80;;;11.40;99.90;;;;;;5076473;28;20515;-51
2021/09/21 01:11:23;;;;;;;9.53;8.63;;;11.30;99.90;;;;;;5067430;28;20456;-48
2021/09/21 01:13:48;;;;;;;10.40;9.40;;;11.30;99.90;;;;;;5070704;28;20230;-47
2021/09/21 01:16:14;;;;;;;10.37;9.37;;;11.30;99.90;;;;;;5070200;28;20220;-47
2021/09/21 01:18:39;;;;;;;9.83;8.77;;;11.30;99.90;;;;;;5070920;28;20264;-48
2021/09/21 01:21:07;;;;;;;10.60;9.50;;;11.30;99.90;;;;;;5069784;28;20976;-48
2021/09/21 01:23:43;;;;;;;10.80;9.00;;;11.30;99.90;;;;;;5069338;28;20181;-48
2021/09/21 01:26:09;;;;;;;10.00;9.00;;;11.30;99.90;;;;;;5070048;28;20489;-50
2021/09/21 01:28:35;;;;;;;10.30;9.30;;;11.30;99.90;;;;;;5070485;28;20408;-50
2021/09/21 01:31:00;;;;;;;10.33;9.30;;;11.30;99.90;;;;;;5069367;28;20188;-47
2021/09/21 01:33:26;;;;;;;11.50;10.40;;;11.30;99.90;;;;;;5070104;28;20600;-50
2021/09/21 01:35:51;;;;;;;10.70;9.30;;;11.30;99.90;;;;;;5068586;28;20165;-48
2021/09/21 01:38:17;;;;;;;11.10;9.70;;;11.30;99.90;;;;;;5070160;28;20158;-49
2021/09/21 01:40:42;;;;;;;10.30;9.30;;;11.30;99.90;;;;;;5069327;28;20235;-57
2021/09/21 01:43:08;;;;;;;9.60;8.60;;;11.30;99.90;;;;;;5061690;28;20223;-47
2021/09/21 01:45:34;;;;;;;11.70;9.40;;;11.40;99.90;;;;;;5064006;28;20185;-49
2021/09/21 01:47:59;;;;;;;12.43;9.13;;;11.30;99.90;;;;;;5070248;28;20605;-49
2021/09/21 01:51:10;;;;;;;10.30;9.40;;;11.30;99.90;;;;;;5069451;28;20204;-49
2021/09/21 01:53:34;;;;;;;9.70;8.70;;;11.30;99.90;;;;;;5061359;28;20611;-50
2021/09/21 02:01:09;;;;;;;10.37;9.37;;;11.20;99.90;;;;;;5069155;28;20435;-52
2021/09/21 02:03:35;;;;;;;10.07;9.17;;;11.30;99.90;;;;;;5070348;28;20177;-52
2021/09/21 02:06:01;;;;;;;11.03;9.30;;;11.20;99.90;;;;;;5069404;28;21056;-53
2021/09/21 02:08:26;;;;;;;10.43;8.70;;;11.20;99.90;;;;;;5050142;28;20401;-49
2021/09/21 02:10:52;;;;;;;14.07;9.83;;;11.20;99.90;;;;;;5051767;28;20241;-49
2021/09/21 02:13:18;;;;;;;10.80;9.77;;;11.20;99.90;;;;;;5069666;28;20202;-48
2021/09/21 02:15:43;;;;;;;9.67;8.60;;;11.20;99.90;;;;;;5057655;28;20186;-49
2021/09/21 02:18:09;;;;;;;12.17;9.07;;;11.10;99.90;;;;;;5069160;28;20245;-51
2021/09/21 02:20:35;;;;;;;10.83;9.57;;;11.20;99.90;;;;;;5067868;28;20177;-49
2021/09/21 02:23:00;;;;;;;9.57;8.73;;;11.20;99.90;;;;;;5069019;28;20273;-48
2021/09/21 02:25:26;;;;;;;13.87;10.00;;;11.20;99.90;;;;;;5068392;28;20499;-49
2021/09/21 02:27:52;;;;;;;11.57;10.30;;;11.20;99.90;;;;;;5069762;28;20181;-50
2021/09/21 02:30:17;;;;;;;10.47;9.43;;;11.20;99.90;;;;;;5068714;28;20201;-49
2021/09/21 02:32:44;;;;;;;10.73;9.73;;;11.20;99.90;;;;;;5069462;28;20174;-51
2021/09/21 02:35:09;;;;;;;10.97;9.87;;;11.20;99.90;;;;;;5053706;28;20185;-51
2021/09/21 02:37:35;;;;;;;10.00;9.00;;;11.30;99.90;;;;;;5049469;28;20966;-51
2021/09/21 02:40:01;;;;;;;10.77;9.67;;;11.30;99.90;;;;;;5059833;28;20187;-52
2021/09/21 02:42:27;;;;;;;10.50;9.33;;;11.20;99.90;;;;;;5066800;28;20174;-51
2021/09/21 02:44:52;;;;;;;10.80;9.70;;;11.20;99.90;;;;;;5058722;28;20193;-47
2021/09/21 02:47:18;;;;;;;10.00;9.00;;;11.20;99.90;;;;;;5069373;28;20173;-48
2021/09/21 02:49:44;;;;;;;10.70;9.60;;;11.20;99.90;;;;;;5060418;28;20202;-48
2021/09/21 02:52:09;;;;;;;9.30;8.40;;;11.20;99.90;;;;;;5048938;28;20179;-50
2021/09/21 02:54:35;;;;;;;12.30;9.30;;;11.20;99.90;;;;;;5054477;28;20420;-48
2021/09/21 02:57:00;;;;;;;10.73;9.37;;;11.20;99.90;;;;;;5069279;28;20162;-49
2021/09/21 02:59:26;;;;;;;10.53;9.50;;;11.20;99.90;;;;;;5067709;28;20181;-51
2021/09/21 03:01:52;;;;;;;10.27;9.17;;;11.20;99.90;;;;;;5067890;28;20213;-51
2021/09/21 03:04:39;;;;;;;10.50;9.47;;;11.20;99.90;;;;;;5068312;28;20663;-57
2021/09/21 03:07:08;;;;;;;10.93;9.80;;;11.20;99.90;;;;;;5069279;28;20396;-50
2021/09/21 03:17:37;;;;;;;11.93;9.57;;;11.10;99.90;;;;;;5048528;28;20392;-46
2021/09/21 03:20:03;;;;;;;10.57;9.50;;;11.10;99.90;;;;;;5049389;28;20906;-47
2021/09/21 03:22:29;;;;;;;10.27;9.27;;;11.10;99.90;;;;;;5049174;28;20594;-47
2021/09/21 03:24:56;;;;;;;10.53;9.47;;;11.20;99.90;;;;;;5049102;28;20453;-49
2021/09/21 03:27:22;;;;;;;11.60;10.50;;;11.10;99.90;;;;;;5047792;28;20268;-48
2021/09/21 03:29:48;;;;;;;11.10;10.00;;;11.10;99.90;;;;;;5048855;28;20777;-48
2021/09/21 03:32:13;;;;;;;11.03;9.63;;;11.10;99.90;;;;;;5049000;28;20400;-52
2021/09/21 03:34:39;;;;;;;10.43;9.33;;;11.20;99.90;;;;;;5049191;28;20236;-49
2021/09/21 03:37:06;;;;;;;10.40;9.20;;;11.10;99.90;;;;;;5048822;28;20190;-47
2021/09/21 03:39:32;;;;;;;11.07;10.00;;;11.10;99.90;;;;;;5048867;28;20213;-52
2021/09/21 03:41:58;;;;;;;11.70;10.07;;;11.10;99.90;;;;;;5049045;28;20404;-52
2021/09/21 03:44:23;;;;;;;10.87;9.80;;;11.20;99.90;;;;;;5067638;28;20557;-51
2021/09/21 03:46:50;;;;;;;11.37;10.07;;;11.20;99.90;;;;;;5069412;28;20162;-49
2021/09/21 03:49:15;;;;;;;10.10;9.10;;;11.20;99.90;;;;;;5068888;28;20283;-50
2021/09/21 03:51:41;;;;;;;10.90;9.30;;;11.20;99.90;;;;;;5068788;28;20838;-48
2021/09/21 03:54:09;;;;;;;10.67;9.43;;;11.20;99.90;;;;;;5068896;28;20395;-48
2021/09/21 03:56:38;;;;;;;10.23;9.30;;;11.30;99.90;;;;;;5069287;28;20165;-48
2021/09/21 03:59:05;;;;;;;10.40;9.50;;;11.30;99.90;;;;;;5068894;28;21262;-49
2021/09/21 04:01:31;;;;;;;10.70;9.60;;;11.30;99.90;;;;;;5068797;28;20400;-47
2021/09/21 04:03:57;;;;;;;13.17;10.00;;;11.30;99.90;;;;;;5068671;28;20395;-51
2021/09/21 04:06:23;;;;;;;11.40;10.20;;;11.30;99.90;;;;;;5072189;28;20697;-50
2021/09/21 04:08:49;;;;;;;11.70;9.83;;;11.30;99.90;;;;;;5072066;28;20396;-58
2021/09/21 04:11:15;;;;;;;10.30;9.23;;;11.30;99.90;;;;;;5066030;28;20641;-49
2021/09/21 04:13:40;;;;;;;10.53;9.20;;;11.30;99.90;;;;;;5068665;28;20474;-53
2021/09/21 04:16:06;;;;;;;12.13;10.83;;;11.40;99.90;;;;;;5074112;28;20182;-49
2021/09/21 04:18:31;;;;;;;10.13;9.13;;;11.40;99.90;;;;;;5052131;28;20182;-51
2021/09/21 04:20:57;;;;;;;12.53;10.10;;;11.30;99.90;;;;;;5052122;28;20166;-49
2021/09/21 04:23:23;;;;;;;10.33;9.33;;;11.30;99.90;;;;;;5051945;28;20210;-47
2021/09/21 04:25:49;;;;;;;11.47;10.37;;;11.30;99.90;;;;;;5052012;28;20502;-53
2021/09/21 04:28:14;;;;;;;11.80;10.57;;;11.30;99.90;;;;;;5051740;28;20408;-51
2021/09/21 04:30:42;;;;;;;10.40;9.30;;;11.30;99.90;;;;;;5051900;28;20198;-47
2021/09/21 04:33:08;;;;;;;10.63;9.60;;;11.30;99.90;;;;;;5051663;28;20205;-48
2021/09/21 04:35:34;;;;;;;10.60;9.50;;;11.30;99.90;;;;;;5052139;28;20417;-54
2021/09/21 04:37:59;;;;;;;11.20;9.70;;;11.30;99.90;;;;;;5051590;28;20174;-51
2021/09/21 04:40:25;;;;;;;10.13;9.00;;;11.30;99.90;;;;;;5051577;28;20185;-51
2021/09/21 04:42:50;;;;;;;10.70;9.70;;;11.30;99.90;;;;;;5057605;28;20404;-48
2021/09/21 04:45:16;;;;;;;11.80;9.50;;;11.30;99.90;;;;;;5071712;28;20186;-48
2021/09/21 04:47:41;;;;;;;11.20;10.10;;;11.20;99.90;;;;;;5071302;28;20938;-51
2021/09/21 04:50:08;;;;;;;11.00;9.90;;;11.20;99.90;;;;;;5071251;28;20564;-50
2021/09/21 04:52:34;;;;;;;11.93;10.50;;;11.10;99.90;;;;;;5071623;28;20174;-50
2021/09/21 04:54:59;;;;;;;9.83;8.93;;;11.10;99.90;;;;;;5071273;28;20404;-51
2021/09/21 04:57:25;;;;;;;11.20;9.37;;;11.10;99.90;;;;;;5071342;28;20781;-48
2021/09/21 04:59:50;;;;;;;10.90;9.70;;;11.10;99.90;;;;;;5071577;28;20188;-51
2021/09/21 05:02:16;;;;;;;11.33;9.00;;;11.20;99.90;;;;;;5071138;28;20170;-52
2021/09/21 05:04:42;;;;;;;10.27;9.27;;;11.10;99.90;;;;;;5071304;28;20539;-52
2021/09/21 05:07:07;;;;;;;10.37;9.30;;;11.10;99.90;;;;;;5071167;28;20162;-52
2021/09/21 05:09:33;;;;;;;10.43;9.10;;;11.10;99.90;;;;;;5071189;28;20201;-51
2021/09/21 05:11:59;;;;;;;10.67;9.57;;;11.20;99.90;;;;;;5062530;28;20177;-53
2021/09/21 05:14:24;;;;;;;12.40;9.63;;;11.20;99.90;;;;;;5079280;28;20212;-50
2021/09/21 05:16:50;;;;;;;10.03;8.97;;;11.20;99.90;;;;;;5084756;28;20546;-48
2021/09/21 05:19:15;;;;;;;9.83;8.83;;;11.20;99.90;;;;;;5089894;28;20195;-54
2021/09/21 05:21:41;;;;;;;9.53;8.53;;;11.20;99.90;;;;;;5090133;28;20196;-53
2021/09/21 05:24:08;;;;;;;9.27;8.20;;;11.20;99.90;;;;;;5087459;28;20176;-50
2021/09/21 05:26:34;;;;;;;10.43;8.93;;;11.30;99.90;;;;;;5091100;28;20177;-50
2021/09/21 05:29:00;;;;;;;8.70;7.90;;;11.30;99.90;;;;;;5085568;28;20439;-50
2021/09/21 05:31:26;;;;;;;9.40;8.50;;;11.30;99.90;;;;;;5050879;28;20890;-52
2021/09/21 05:33:52;;;;;;;9.70;8.67;;;11.30;99.90;;;;;;5050448;28;20425;-50
2021/09/21 05:36:17;;;;;;;9.83;8.80;;;11.30;99.90;;;;;;5050487;28;20610;-51
2021/09/21 05:38:43;;;;;;;9.83;8.83;;;11.30;99.90;;;;;;5050454;28;20187;-49
2021/09/21 05:41:08;;;;;;;10.40;9.37;;;11.30;99.90;;;;;;5050618;28;20166;-49
2021/09/21 05:43:34;;;;;;;9.70;8.53;;;11.30;99.90;;;;;;5061646;28;20237;-47
2021/09/21 05:46:00;;;;;;;9.70;8.13;;;11.30;99.90;;;;;;5070181;28;20190;-49
2021/09/21 05:48:25;;;;;;;10.27;9.27;;;11.40;99.90;;;;;;5070243;28;20200;-51
2021/09/21 05:50:51;;;;;;;10.33;8.90;;;11.40;99.90;;;;;;5068845;28;20856;-52
2021/09/21 05:53:17;;;;;;;9.70;8.60;;;11.40;99.90;;;;;;5070307;28;20189;-50
2021/09/21 05:55:42;;;;;;;11.00;8.80;;;11.40;99.90;;;;;;5070201;28;20654;-54
2021/09/21 05:58:09;;;;;;;9.40;8.40;;;11.50;99.90;;;;;;5070067;28;20648;-53
2021/09/21 06:00:36;;;;;;;9.23;8.00;;;11.50;99.90;;;;;;5070330;28;20177;-50
2021/09/21 06:03:02;;;;;;;9.40;8.47;;;11.60;99.90;;;;;;5069975;28;20412;-53
2021/09/21 06:05:27;;;;;;;8.77;7.87;;;11.60;99.90;;;;;;5070012;28;20416;-50
2021/09/21 06:07:54;;;;;;;9.77;8.43;;;11.50;99.90;;;;;;5070217;28;20216;-49
2021/09/21 06:10:21;;;;;;;8.87;8.00;;;11.50;99.90;;;;;;5069875;28;20193;-50
2021/09/21 06:12:47;;;;;;;10.10;9.07;;;11.50;99.90;;;;;;5054188;28;20431;-48
2021/09/21 06:15:16;;;;;;;9.90;8.83;;;11.50;99.90;;;;;;5052457;28;20412;-49
2021/09/21 06:17:43;;;;;;;10.70;9.60;;;11.50;99.90;;;;;;5063828;28;20421;-53
2021/09/21 06:20:10;;;;;;;10.40;8.40;;;11.60;99.90;;;;;;5055210;28;20428;-47
2021/09/21 06:22:41;;;;;;;9.13;8.27;;;11.70;99.90;;;;;;5070269;28;20430;-54
2021/09/21 06:25:08;;;;;;;9.20;7.63;;;11.80;99.90;;;;;;5068064;28;20526;-50
2021/09/21 06:27:37;;;;;;;10.00;9.00;;;11.90;99.90;;;;;;5069040;28;20408;-53
2021/09/21 06:30:04;;;;;;;9.40;8.30;;;12.00;99.90;;;;;;5069672;28;20459;-50
2021/09/21 06:32:30;;;;;;;10.23;9.23;;;12.10;99.90;;;;;;5069489;28;20416;-50
2021/09/21 06:34:56;;;;;;;9.47;8.47;;;12.20;99.90;;;;;;5069547;28;20507;-50
2021/09/21 06:37:21;;;;;;;9.30;8.40;;;12.30;99.90;;;;;;5069689;28;20200;-51
2021/09/21 06:39:47;;;;;;;10.00;8.30;;;12.40;99.90;;;;;;5069623;28;20222;-50
2021/09/21 06:42:12;;;;;;;9.90;8.90;;;12.40;99.90;;;;;;5069159;28;20238;-52
2021/09/21 06:44:38;;;;;;;12.23;8.70;;;12.50;99.90;;;;;;5057155;28;20233;-48
2021/09/21 06:47:04;;;;;;;8.17;7.47;;;12.60;99.90;;;;;;5069378;28;20170;-50
2021/09/21 06:49:30;;;;;;;8.70;7.90;;;12.70;99.90;;;;;;5069330;28;20598;-52
2021/09/21 06:51:56;;;;;;;9.90;8.73;;;12.80;99.90;;;;;;5069708;28;20311;-50
2021/09/21 06:54:22;;;;;;;8.20;7.40;;;13.00;99.90;;;;;;5069518;28;20415;-52
2021/09/21 06:56:47;;;;;;;12.00;8.60;;;13.10;99.90;;;;;;5068270;28;20414;-48
2021/09/21 06:59:13;;;;;;;10.50;8.60;;;13.20;99.90;;;;;;5069231;28;20687;-51
2021/09/21 07:01:39;;;;;;;9.10;8.20;;;13.20;99.90;;;;;;5069308;28;20648;-49
2021/09/21 07:04:04;;;;;;;8.93;7.93;;;13.30;99.90;;;;;;5069107;28;20180;-49
2021/09/21 07:06:30;;;;;;;9.73;8.70;;;13.40;99.90;;;;;;5068862;28;20209;-48
2021/09/21 07:08:55;;;;;;;15.63;9.40;;;13.50;99.90;;;;;;5069145;28;20539;-52
2021/09/21 07:11:21;;;;;;;10.07;9.00;;;13.50;99.90;;;;;;5069109;28;20219;-54
2021/09/21 07:13:48;;;;;;;9.50;8.60;;;13.70;99.90;;;;;;5068979;28;20576;-50
2021/09/21 07:16:13;;;;;;;9.90;9.00;;;13.70;99.90;;;;;;5062601;28;20178;-58
2021/09/21 07:18:39;;;;;;;10.03;9.07;;;13.80;99.90;;;;;;5068488;28;20420;-48
2021/09/21 07:21:05;;;;;;;9.40;8.50;;;13.80;99.90;;;;;;5067736;28;20193;-52
2021/09/21 07:23:32;;;;;;;11.57;10.00;;;13.80;99.90;;;;;;5069015;28;20188;-52
2021/09/21 07:25:57;;;;;;;11.03;9.87;;;14.00;99.90;;;;;;5069039;28;20867;-54
2021/09/21 07:28:23;;;;;;;10.67;8.63;;;14.00;99.90;;;;;;5069180;28;20415;-49
2021/09/21 07:30:49;;;;;;;11.53;9.83;;;14.10;99.90;;;;;;5068775;28;20788;-51
2021/09/21 07:33:16;;;;;;;74.73;62.43;;;14.30;99.90;;;;;;5068861;28;20311;-50
2021/09/21 07:35:42;;;;;;;17.70;15.20;;;14.40;99.90;;;;;;5068583;28;20174;-54
2021/09/21 07:38:08;;;;;;;10.00;9.00;;;14.60;99.90;;;;;;5068946;28;20400;-49
2021/09/21 07:40:37;;;;;;;15.73;14.17;;;14.70;99.90;;;;;;5072736;28;20408;-50
2021/09/21 07:43:05;;;;;;;20.27;9.73;;;14.70;99.90;;;;;;5064642;28;20815;-48
2021/09/21 07:45:32;;;;;;;10.17;8.97;;;14.80;99.90;;;;;;5067117;28;20565;-48
2021/09/21 07:47:58;;;;;;;11.23;9.20;;;14.90;99.90;;;;;;5072494;28;20461;-51
2021/09/21 07:50:25;;;;;;;11.03;9.30;;;15.10;99.90;;;;;;5070643;28;20546;-52
2021/09/21 07:52:51;;;;;;;12.07;9.93;;;15.10;99.90;;;;;;5073109;28;20168;-48
2021/09/21 07:55:17;;;;;;;9.80;8.90;;;15.10;99.90;;;;;;5072355;28;20428;-50
2021/09/21 07:57:43;;;;;;;11.47;10.30;;;15.10;99.90;;;;;;5072517;28;20956;-51
2021/09/21 08:00:11;;;;;;;11.07;9.87;;;15.00;99.90;;;;;;5072442;28;20177;-49
2021/09/21 08:02:38;;;;;;;11.90;9.27;;;15.00;99.90;;;;;;5072389;28;20457;-51
2021/09/21 08:05:04;;;;;;;8.93;8.13;;;15.00;99.90;;;;;;5072260;28;20403;-48
2021/09/21 08:07:31;;;;;;;10.93;9.83;;;15.00;99.90;;;;;;5072211;28;20836;-51
2021/09/21 08:09:58;;;;;;;10.17;9.27;;;15.10;99.90;;;;;;5072000;28;20466;-50
2021/09/21 08:12:25;;;;;;;10.17;8.50;;;15.10;99.90;;;;;;5072250;28;20452;-50
2021/09/21 08:14:51;;;;;;;9.47;8.47;;;15.20;99.90;;;;;;5071598;28;20439;-53
2021/09/21 08:17:17;;;;;;;10.50;9.60;;;15.20;99.90;;;;;;5064778;28;20459;-52
2021/09/21 08:19:42;;;;;;;9.90;8.90;;;15.20;99.90;;;;;;5079571;28;20188;-54
2021/09/21 08:22:08;;;;;;;10.17;9.17;;;15.30;99.90;;;;;;5087176;28;20435;-50
2021/09/21 08:24:33;;;;;;;10.00;9.00;;;15.30;99.90;;;;;;5092106;28;20188;-51
2021/09/21 08:26:59;;;;;;;10.93;9.83;;;15.20;99.90;;;;;;5087941;28;20185;-58
2021/09/21 08:29:25;;;;;;;10.90;9.67;;;15.20;99.90;;;;;;5052108;28;20206;-49
2021/09/21 08:31:51;;;;;;;9.97;8.73;;;15.40;99.90;;;;;;5051771;28;20185;-47
2021/09/21 08:34:16;;;;;;;10.23;8.87;;;15.60;99.90;;;;;;5051705;28;20637;-54
2021/09/21 08:36:42;;;;;;;9.67;8.70;;;15.80;99.90;;;;;;5051826;28;20181;-51
2021/09/21 08:39:08;;;;;;;9.80;8.90;;;16.00;1.00;;;;;;5051946;28;20945;-48
2021/09/21 08:41:34;;;;;;;10.53;9.63;;;16.00;99.90;;;;;;5051555;28;20186;-50
2021/09/21 08:44:00;;;;;;;9.93;9.03;;;15.90;99.90;;;;;;5066972;28;20235;-49
2021/09/21 08:46:27;;;;;;;9.23;8.33;;;15.90;1.00;;;;;;5071787;28;20863;-52
2021/09/21 08:48:53;;;;;;;9.70;8.80;;;16.10;1.00;;;;;;5071519;28;20186;-50
2021/09/21 08:51:18;;;;;;;9.73;8.83;;;16.10;1.00;;;;;;5070845;28;20408;-52
2021/09/21 08:53:44;;;;;;;9.67;8.67;;;16.20;1.00;;;;;;5071464;28;20196;-49
2021/09/21 08:56:10;;;;;;;9.90;9.07;;;16.30;1.00;;;;;;5071403;28;20223;-53
2021/09/21 08:58:36;;;;;;;8.73;7.93;;;16.50;99.90;;;;;;5070014;28;20170;-48
2021/09/21 09:01:10;;;;;;;9.13;8.23;;;16.60;99.90;;;;;;5071300;28;20930;-49
2021/09/21 09:03:35;;;;;;;8.90;8.20;;;16.80;56.00;;;;;;5071388;28;20423;-51
2021/09/21 09:06:08;;;;;;;10.00;9.10;;;17.00;1.00;;;;;;5071175;28;20806;-50
2021/09/21 09:08:36;;;;;;;9.97;8.47;;;17.00;1.00;;;;;;5071173;28;20221;-51
2021/09/21 09:11:11;;;;;;;9.37;8.60;;;17.20;1.00;;;;;;5071268;28;20480;-50
2021/09/21 09:13:37;;;;;;;9.30;8.50;;;17.40;1.00;;;;;;5071009;28;20415;-52
2021/09/21 09:16:16;;;;;;;9.10;8.30;;;17.50;1.00;;;;;;5068388;28;20485;-53
2021/09/21 09:18:42;;;;;;;8.40;7.70;;;17.70;1.00;;;;;;5068629;28;20249;-53
2021/09/21 09:21:09;;;;;;;8.77;8.07;;;17.80;1.00;;;;;;5057775;28;21133;-49
2021/09/21 09:23:43;;;;;;;8.53;7.73;;;18.10;1.00;;;;;;5083838;28;20493;-52
2021/09/21 09:26:09;;;;;;;8.90;8.20;;;18.30;1.00;;;;;;5052390;28;20439;-51
2021/09/21 09:28:36;;;;;;;9.13;8.43;;;18.50;99.90;;;;;;5051029;28;20413;-53
2021/09/21 09:31:01;;;;;;;8.50;7.83;;;18.50;99.90;;;;;;5050700;28;20290;-49
2021/09/21 09:33:33;;;;;;;8.20;7.50;;;18.50;99.90;;;;;;5050475;28;20492;-52
2021/09/21 09:36:00;;;;;;;8.97;8.27;;;18.80;99.90;;;;;;5050563;28;20234;-48
2021/09/21 09:38:26;;;;;;;8.43;7.80;;;19.00;99.90;;;;;;5050249;28;20420;-52
2021/09/21 09:40:54;;;;;;;8.47;7.87;;;19.40;99.90;;;;;;5050742;28;20759;-51
2021/09/21 09:43:25;;;;;;;8.30;7.57;;;19.60;99.90;;;;;;5060220;28;20227;-54
2021/09/21 09:45:54;;;;;;;7.70;7.00;;;19.80;99.90;;;;;;5069858;28;20420;-50
2021/09/21 09:48:21;;;;;;;8.40;7.80;;;20.10;99.90;;;;;;5070197;28;20407;-50
2021/09/21 09:50:52;;;;;;;8.90;8.30;;;20.10;99.90;;;;;;5070267;28;20462;-51
2021/09/21 09:53:19;;;;;;;8.10;7.30;;;20.10;99.90;;;;;;5070010;28;20972;-49
2021/09/21 09:55:51;;;;;;;8.37;7.67;;;20.40;99.90;;;;;;5068718;28;20443;-47
2021/09/21 09:58:18;;;;;;;8.47;7.77;;;20.80;99.90;;;;;;5070118;28;20424;-52
2021/09/21 10:00:45;;;;;;;8.10;7.43;;;20.90;99.90;;;;;;5069844;28;20582;-50
2021/09/21 10:03:11;;;;;;;7.47;6.90;;;20.70;99.90;;;;;;5069226;28;20410;-49
2021/09/21 10:05:38;;;;;;;8.20;7.47;;;20.80;99.90;;;;;;5069913;28;20417;-49
2021/09/21 10:08:06;;;;;;;7.50;6.97;;;20.90;99.90;;;;;;5070140;28;20506;-52
2021/09/21 10:10:34;;;;;;;7.43;6.93;;;20.90;99.90;;;;;;5069864;28;20463;-47
2021/09/21 10:13:02;;;;;;;7.60;6.90;;;21.10;99.90;;;;;;5070447;28;20415;-53
2021/09/21 10:15:28;;;;;;;8.10;7.50;;;21.20;99.90;;;;;;5069342;28;20401;-51
2021/09/21 10:17:55;;;;;;;8.27;7.67;;;21.30;99.90;;;;;;5059835;28;21394;-51
2021/09/21 10:20:23;;;;;;;8.07;7.53;;;21.50;99.90;;;;;;5075857;28;20451;-51
2021/09/21 10:22:54;;;;;;;8.27;7.67;;;21.60;99.90;;;;;;5068334;28;20904;-53
2021/09/21 10:25:27;;;;;;;8.27;7.67;;;22.00;99.90;;;;;;5069699;28;20425;-49
2021/09/21 10:27:53;;;;;;;8.60;7.87;;;22.60;99.90;;;;;;5069831;28;20419;-50
2021/09/21 10:30:23;;;;;;;8.90;8.30;;;23.30;99.90;;;;;;5069366;28;20459;-51
2021/09/21 10:32:49;;;;;;;8.00;7.40;;;23.80;99.90;;;;;;5069796;28;20410;-51
2021/09/21 10:35:20;;;;;;;7.53;6.93;;;24.70;99.90;;;;;;5069405;28;20407;-51
2021/09/21 10:37:57;;;;;;;8.37;7.77;;;25.40;99.90;;;;;;5069371;28;20941;-56
2021/09/21 10:40:37;;;;;;;8.60;8.00;;;25.80;99.90;;;;;;5069405;28;20507;-53
2021/09/21 10:43:03;;;;;;;8.30;7.60;;;25.90;99.90;;;;;;5061709;28;20539;-54
2021/09/21 10:45:29;;;;;;;8.90;8.20;;;25.50;99.90;;;;;;5051938;28;20441;-51
2021/09/21 10:48:05;;;;;;;8.47;7.97;;;24.20;99.90;;;;;;5073217;28;20433;-53
2021/09/21 10:50:38;;;;;;;8.53;7.93;;;23.40;99.90;;;;;;5086604;28;20207;-54
2021/09/21 10:53:08;;;;;;;7.80;7.20;;;23.10;99.90;;;;;;5089346;28;20424;-51
2021/09/21 10:55:38;;;;;;;8.20;7.60;;;22.20;99.90;;;;;;5086902;28;20557;-58
2021/09/21 10:58:15;;;;;;;8.00;7.50;;;21.60;99.90;;;;;;5089026;28;20427;-48
2021/09/21 11:00:41;;;;;;;9.33;8.63;;;21.10;99.90;;;;;;5087443;28;20434;-50
2021/09/21 11:03:11;;;;;;;9.03;8.40;;;21.10;99.90;;;;;;5087299;28;20788;-50
2021/09/21 11:05:37;;;;;;;8.63;8.00;;;21.40;99.90;;;;;;5089163;28;20193;-49
2021/09/21 11:08:07;;;;;;;9.10;8.33;;;21.90;99.90;;;;;;5067916;28;20426;-52
2021/09/21 11:10:36;;;;;;;8.10;7.50;;;22.00;99.90;;;;;;5080232;28;20602;-51
2021/09/21 11:13:08;;;;;;;9.93;8.93;;;21.80;99.90;;;;;;5089104;28;20451;-50
2021/09/21 11:15:34;;;;;;;9.87;9.07;;;21.60;99.90;;;;;;5091458;28;20897;-51
2021/09/21 11:18:11;;;;;;;7.73;7.13;;;21.20;99.90;;;;;;5072736;28;20480;-50
2021/09/21 11:21:10;;;;;;;9.33;8.73;;;21.30;99.90;;;;;;5073063;28;20611;-50
2021/09/21 11:23:38;;;;;;;8.67;8.07;;;21.20;99.90;;;;;;5039482;28;20865;-49
2021/09/21 11:26:13;;;;;;;9.33;8.60;;;20.60;99.90;;;;;;5072740;28;20472;-50
2021/09/21 11:28:45;;;;;;;10.10;9.40;;;20.20;99.90;;;;;;5072760;28;20495;-49
2021/09/21 11:31:11;;;;;;;9.20;8.60;;;20.00;99.90;;;;;;5078107;28;20983;-49
2021/09/21 11:33:38;;;;;;;8.43;7.73;;;19.80;99.90;;;;;;5092139;28;20973;-52
2021/09/21 11:36:10;;;;;;;9.07;8.27;;;19.40;99.90;;;;;;5093097;28;20476;-53
2021/09/21 11:38:42;;;;;;;8.37;7.77;;;19.40;99.90;;;;;;5090334;28;20490;-51
2021/09/21 11:41:09;;;;;;;8.43;7.70;;;19.00;99.90;;;;;;5090190;28;20434;-49
2021/09/21 11:43:35;;;;;;;9.43;8.70;;;18.90;99.90;;;;;;5090750;28;20470;-52
2021/09/21 11:46:01;;;;;;;10.17;9.30;;;18.80;99.90;;;;;;5074581;28;20445;-50
2021/09/21 11:48:27;;;;;;;9.17;8.40;;;18.40;99.90;;;;;;5072338;28;20419;-50
2021/09/21 11:50:54;;;;;;;9.77;8.90;;;18.10;99.90;;;;;;5071273;28;20209;-47
2021/09/21 11:53:23;;;;;;;9.33;8.60;;;18.00;99.90;;;;;;5081079;28;20426;-52
2021/09/21 11:55:51;;;;;;;9.00;8.30;;;18.00;99.90;;;;;;5092384;28;20763;-52
2021/09/21 11:58:17;;;;;;;8.00;7.40;;;17.80;99.90;;;;;;5089900;28;20432;-50
2021/09/21 12:00:51;;;;;;;8.87;8.07;;;17.70;99.90;;;;;;5092160;28;20428;-48
2021/09/21 12:03:21;;;;;;;7.90;7.30;;;17.60;99.90;;;;;;5092573;28;20504;-48
2021/09/21 12:05:52;;;;;;;8.30;7.60;;;17.50;99.90;;;;;;5091276;28;20470;-50
2021/09/21 12:08:23;;;;;;;8.67;8.07;;;17.60;99.90;;;;;;5091292;28;20837;-50
2021/09/21 12:10:58;;;;;;;8.40;7.80;;;17.50;99.90;;;;;;5092070;28;20463;-51
2021/09/21 12:13:26;;;;;;;7.70;7.10;;;17.50;99.90;;;;;;5092090;28;20429;-51
2021/09/21 12:15:58;;;;;;;8.20;7.50;;;17.40;99.90;;;;;;5088760;28;20770;-52
2021/09/21 12:18:25;;;;;;;8.37;7.67;;;17.30;99.90;;;;;;5092034;28;20447;-51
2021/09/21 12:20:57;;;;;;;8.50;7.90;;;17.20;99.90;;;;;;5091961;28;20423;-49
2021/09/21 12:23:25;;;;;;;7.73;7.03;;;17.10;99.90;;;;;;5092103;28;20438;-50
2021/09/21 12:25:52;;;;;;;8.23;7.63;;;17.10;99.90;;;;;;5089652;28;20472;-49
2021/09/21 12:28:24;;;;;;;8.30;7.60;;;16.80;99.90;;;;;;5091963;28;20460;-51
2021/09/21 12:30:49;;;;;;;7.80;7.20;;;16.70;99.90;;;;;;5089968;28;20473;-49
2021/09/21 12:33:15;;;;;;;8.07;7.47;;;16.60;99.90;;;;;;5091801;28;20466;-52
2021/09/21 12:35:50;;;;;;;8.40;7.80;;;16.60;99.90;;;;;;5090820;28;20185;-49
2021/09/21 12:38:18;;;;;;;8.70;8.00;;;16.60;99.90;;;;;;5091728;28;20173;-51
2021/09/21 12:40:49;;;;;;;8.30;7.60;;;16.50;99.90;;;;;;5091902;28;20415;-54
2021/09/21 12:43:20;;;;;;;7.13;6.63;;;16.50;99.90;;;;;;5081737;28;20495;-47
2021/09/21 12:45:48;;;;;;;7.67;7.03;;;16.50;99.90;;;;;;5076340;28;20411;-52
2021/09/21 12:48:14;;;;;;;8.63;7.83;;;16.50;99.90;;;;;;5091640;28;20928;-53
2021/09/21 12:50:40;;;;;;;7.70;7.00;;;16.50;99.90;;;;;;5073999;28;20499;-53
2021/09/21 12:53:07;;;;;;;8.30;7.70;;;16.60;99.90;;;;;;5071093;28;20424;-50
2021/09/21 12:55:34;;;;;;;7.43;6.93;;;16.50;99.90;;;;;;5071356;28;20428;-58